createdAt,value
2023-05-12T00:02:24.452Z,101376.85
2023-05-12T00:04:53.444Z,101375.81
2023-05-12T00:07:22.807Z,101373.01
2023-05-12T00:09:50.915Z,101372.98
2023-05-12T00:12:19.509Z,101369.30
2023-05-12T00:14:48.532Z,101371.04
2023-05-12T00:17:20.077Z,101369.10
2023-05-12T00:19:55.492Z,101373.83
2023-05-12T00:22:23.714Z,101375.06
2023-05-12T00:24:52.086Z,101377.86
2023-05-12T00:27:20.222Z,101378.19
2023-05-12T00:29:50.804Z,101380.64
2023-05-12T00:32:20.142Z,101380.61
2023-05-12T00:34:50.089Z,101380.08
2023-05-12T00:37:18.944Z,101379.02
2023-05-12T00:39:48.173Z,101377.77
2023-05-12T00:42:16.211Z,101372.70
2023-05-12T00:44:48.841Z,101378.64
2023-05-12T00:47:18.296Z,101376.17
2023-05-12T00:49:46.406Z,101380.90
2023-05-12T00:52:16.472Z,101383.67
2023-05-12T00:54:46.390Z,101381.77
2023-05-12T00:57:15.963Z,101380.70
2023-05-12T00:59:45.408Z,101380.85
2023-05-12T01:02:22.177Z,101383.11
2023-05-12T01:04:50.589Z,101385.55
2023-05-12T01:07:21.861Z,101383.98
2023-05-12T01:09:54.788Z,101391.47
2023-05-12T01:12:23.722Z,101390.04
2023-05-12T01:14:52.769Z,101390.36
2023-05-12T01:17:22.486Z,101387.53
2023-05-12T01:19:53.650Z,101387.36
2023-05-12T01:22:21.937Z,101385.27
2023-05-12T01:24:52.590Z,101386.30
2023-05-12T01:27:24.864Z,101388.22
2023-05-12T01:29:54.730Z,101395.39
2023-05-12T01:32:23.370Z,101392.06
2023-05-12T01:34:51.471Z,101391.36
2023-05-12T01:37:20.176Z,101391.34
2023-05-12T01:39:49.503Z,101390.11
2023-05-12T01:42:18.451Z,101387.30
2023-05-12T01:44:46.658Z,101388.73
2023-05-12T01:47:16.171Z,101388.55
2023-05-12T01:49:45.299Z,101379.10
2023-05-12T01:52:13.453Z,101379.26
2023-05-12T01:54:41.418Z,101378.19
2023-05-12T01:57:09.482Z,101378.17
2023-05-12T01:59:37.981Z,101376.41
2023-05-12T02:02:06.158Z,101381.10
2023-05-12T02:04:34.079Z,101378.29
2023-05-12T02:07:02.258Z,101378.27
2023-05-12T02:09:31.204Z,101379.46
2023-05-12T02:11:59.289Z,101376.48
2023-05-12T02:14:28.614Z,101377.54
2023-05-12T02:16:56.902Z,101377.36
2023-05-12T02:19:27.434Z,101374.36
2023-05-12T02:21:55.975Z,101378.35
2023-05-12T02:24:24.407Z,101375.90
2023-05-12T02:26:53.758Z,101375.02
2023-05-12T02:29:22.671Z,101378.52
2023-05-12T02:31:50.901Z,101379.05
2023-05-12T02:34:20.437Z,101381.81
2023-05-12T02:36:50.234Z,101382.48
2023-05-12T02:39:21.986Z,101380.77
2023-05-12T02:41:51.056Z,101383.38
2023-05-12T02:44:21.842Z,101388.80
2023-05-12T02:46:50.862Z,101393.35
2023-05-12T02:49:20.024Z,101394.39
2023-05-12T02:51:49.192Z,101393.36
2023-05-12T02:54:17.423Z,101394.61
2023-05-12T02:56:46.827Z,101399.86
2023-05-12T02:59:15.026Z,101402.84
2023-05-12T03:01:43.225Z,101404.07
2023-05-12T03:04:11.246Z,101404.45
2023-05-12T03:06:39.309Z,101408.81
2023-05-12T03:09:07.370Z,101407.94
2023-05-12T03:11:35.527Z,101411.27
2023-05-12T03:14:03.846Z,101408.30
2023-05-12T03:16:31.979Z,101407.96
2023-05-12T03:19:00.308Z,101410.95
2023-05-12T03:21:28.452Z,101407.80
2023-05-12T03:23:56.809Z,101410.95
2023-05-12T03:26:24.768Z,101412.52
2023-05-12T03:28:52.918Z,101415.34
2023-05-12T03:31:22.428Z,101418.67
2023-05-12T03:33:51.491Z,101416.76
2023-05-12T03:36:19.471Z,101417.45
2023-05-12T03:38:48.615Z,101421.66
2023-05-12T03:41:20.987Z,101423.05
2023-05-12T03:43:50.596Z,101424.64
2023-05-12T03:46:18.749Z,101427.98
2023-05-12T03:48:48.784Z,101427.14
2023-05-12T03:51:24.474Z,101428.89
2023-05-12T03:53:53.453Z,101431.38
2023-05-12T03:56:22.827Z,101433.66
2023-05-12T03:58:53.170Z,101432.10
2023-05-12T04:01:23.886Z,101434.38
2023-05-12T04:03:53.042Z,101437.70
2023-05-12T04:06:25.301Z,101436.17
2023-05-12T04:08:55.208Z,101432.88
2023-05-12T04:11:24.094Z,101440.94
2023-05-12T04:14:00.022Z,101442.17
2023-05-12T04:16:28.545Z,101442.56
2023-05-12T04:18:57.071Z,101444.00
2023-05-12T04:21:25.688Z,101440.00
2023-05-12T04:23:54.069Z,101441.05
2023-05-12T04:26:23.030Z,101439.83
2023-05-12T04:28:52.121Z,101438.98
2023-05-12T04:31:21.153Z,101439.34
2023-05-12T04:33:49.386Z,101439.90
2023-05-12T04:36:18.320Z,101437.47
2023-05-12T04:38:46.565Z,101436.61
2023-05-12T04:41:14.652Z,101437.34
2023-05-12T04:46:13.558Z,101438.23
2023-05-12T04:48:42.937Z,101439.52
2023-05-12T04:51:10.793Z,101441.11
2023-05-12T04:53:39.129Z,101441.83
2023-05-12T04:56:07.565Z,101443.95
2023-05-12T04:58:35.651Z,101447.48
2023-05-12T05:01:04.601Z,101450.48
2023-05-12T05:03:33.108Z,101446.98
2023-05-12T05:06:01.080Z,101455.23
2023-05-12T05:08:29.502Z,101453.48
2023-05-12T05:10:57.632Z,101456.83
2023-05-12T05:13:25.733Z,101456.48
2023-05-12T05:15:56.524Z,101455.27
2023-05-12T05:18:25.874Z,101452.66
2023-05-12T05:20:58.763Z,101456.52
2023-05-12T05:23:27.426Z,101456.69
2023-05-12T05:25:56.137Z,101465.81
2023-05-12T05:28:26.087Z,101465.13
2023-05-12T05:30:55.135Z,101465.48
2023-05-12T05:33:25.616Z,101468.98
2023-05-12T05:35:54.755Z,101463.73
2023-05-12T05:38:22.982Z,101471.98
2023-05-12T05:40:54.298Z,101467.40
2023-05-12T05:43:22.800Z,101469.86
2023-05-12T05:45:51.020Z,101472.33
2023-05-12T05:48:20.286Z,101470.21
2023-05-12T05:50:48.358Z,101471.25
2023-05-12T05:53:19.936Z,101472.33
2023-05-12T05:55:48.536Z,101476.35
2023-05-12T05:58:16.654Z,101474.41
2023-05-12T06:00:44.733Z,101480.36
2023-05-12T06:03:12.848Z,101478.23
2023-05-12T06:05:42.654Z,101477.87
2023-05-12T06:08:12.834Z,101479.61
2023-05-12T06:10:41.135Z,101486.09
2023-05-12T06:13:09.296Z,101487.31
2023-05-12T06:15:37.764Z,101490.44
2023-05-12T06:18:06.260Z,101488.31
2023-05-12T06:20:34.356Z,101487.77
2023-05-12T06:23:02.535Z,101485.81
2023-05-12T06:25:32.712Z,101491.40
2023-05-12T06:28:00.777Z,101488.75
2023-05-12T06:30:29.641Z,101496.27
2023-05-12T06:32:59.046Z,101492.57
2023-05-12T06:35:29.807Z,101493.92
2023-05-12T06:37:58.885Z,101496.00
2023-05-12T06:40:28.067Z,101498.08
2023-05-12T06:42:56.162Z,101503.35
2023-05-12T06:45:24.238Z,101499.30
2023-05-12T06:47:52.398Z,101499.96
2023-05-12T06:50:20.694Z,101502.73
2023-05-12T06:52:49.294Z,101503.58
2023-05-12T06:55:20.164Z,101503.05
2023-05-12T06:57:51.064Z,101502.66
2023-05-12T07:00:19.754Z,101502.83
2023-05-12T07:02:47.764Z,101501.23
2023-05-12T07:05:16.087Z,101502.59
2023-05-12T07:07:44.429Z,101505.56
2023-05-12T07:10:12.667Z,101504.15
2023-05-12T07:12:40.729Z,101507.88
2023-05-12T07:15:11.040Z,101502.41
2023-05-12T07:17:38.997Z,101505.21
2023-05-12T07:20:09.241Z,101505.40
2023-05-12T07:22:38.770Z,101504.32
2023-05-12T07:25:07.664Z,101503.95
2023-05-12T07:27:36.107Z,101505.93
2023-05-12T07:30:05.160Z,101507.15
2023-05-12T07:32:33.296Z,101505.55
2023-05-12T07:35:04.620Z,101508.67
2023-05-12T07:37:33.985Z,101509.90
2023-05-12T07:40:02.617Z,101507.47
2023-05-12T07:42:31.615Z,101506.22
2023-05-12T07:44:59.863Z,101509.01
2023-05-12T07:47:28.760Z,101504.89
2023-05-12T07:49:57.530Z,101505.85
2023-05-12T07:52:25.620Z,101503.14
2023-05-12T07:54:55.712Z,101501.49
2023-05-12T07:57:24.148Z,101499.05
2023-05-12T07:59:52.464Z,101497.50
2023-05-12T08:02:20.565Z,101498.02
2023-05-12T08:04:50.440Z,101499.92
2023-05-12T08:07:18.813Z,101499.67
2023-05-12T08:09:46.738Z,101501.70
2023-05-12T08:12:14.974Z,101499.16
2023-05-12T08:14:43.796Z,101502.07
2023-05-12T08:17:12.058Z,101496.53
2023-05-12T08:19:41.927Z,101500.78
2023-05-12T08:22:10.152Z,101502.04
2023-05-12T08:24:38.451Z,101501.81
2023-05-12T08:27:06.459Z,101501.25
2023-05-12T08:29:35.300Z,101501.91
2023-05-12T08:32:04.532Z,101499.58
2023-05-12T08:34:32.644Z,101497.98
2023-05-12T08:37:01.965Z,101494.79
2023-05-12T08:39:30.734Z,101497.41
2023-05-12T08:42:08.946Z,101495.42
2023-05-12T08:44:37.971Z,101500.14
2023-05-12T08:47:08.208Z,101499.20
2023-05-12T08:49:38.577Z,101502.45
2023-05-12T08:52:08.517Z,101498.72
2023-05-12T08:54:48.679Z,101498.77
2023-05-12T08:57:24.354Z,101502.43
2023-05-12T08:59:55.873Z,101494.11
2023-05-12T09:02:26.376Z,101497.41
2023-05-12T09:04:55.514Z,101493.27
2023-05-12T09:07:24.360Z,101495.27
2023-05-12T09:09:54.632Z,101491.43
2023-05-12T09:12:23.282Z,101486.73
2023-05-12T09:14:54.735Z,101485.99
2023-05-12T09:17:22.865Z,101482.92
2023-05-12T09:19:50.983Z,101481.94
2023-05-12T09:22:27.456Z,101487.79
2023-05-12T09:24:57.208Z,101487.53
2023-05-12T09:27:26.601Z,101484.77
2023-05-12T09:29:59.709Z,101482.39
2023-05-12T09:32:32.098Z,101480.41
2023-05-12T09:35:06.066Z,101480.02
2023-05-12T09:37:42.199Z,101478.03
2023-05-12T09:40:14.237Z,101473.55
2023-05-12T09:42:43.181Z,101470.65
2023-05-12T09:45:14.112Z,101468.38
2023-05-12T09:47:43.484Z,101471.25
2023-05-12T09:50:12.051Z,101471.05
2023-05-12T09:52:43.409Z,101472.23
2023-05-12T09:55:12.651Z,101470.88
2023-05-12T09:57:43.356Z,101473.73
2023-05-12T10:00:26.395Z,101474.20
2023-05-12T10:03:04.846Z,101474.38
2023-05-12T10:05:44.158Z,101474.91
2023-05-12T10:08:14.676Z,101477.30
2023-05-12T10:10:44.168Z,101476.98
2023-05-12T10:13:13.777Z,101476.88
2023-05-12T10:15:45.606Z,101476.39
2023-05-12T10:18:15.067Z,101473.36
2023-05-12T10:20:45.637Z,101471.54
2023-05-12T10:23:15.105Z,101468.46
2023-05-12T10:25:44.286Z,101465.27
2023-05-12T10:28:12.549Z,101468.23
2023-05-12T10:30:41.841Z,101463.95
2023-05-12T10:33:11.457Z,101468.02
2023-05-12T10:35:40.976Z,101463.46
2023-05-12T10:38:15.250Z,101464.20
2023-05-12T10:40:52.887Z,101464.70
2023-05-12T10:43:24.533Z,101461.69
2023-05-12T10:46:08.851Z,101470.20
2023-05-12T10:48:37.870Z,101468.91
2023-05-12T10:51:09.565Z,101461.80
2023-05-12T10:53:49.052Z,101459.48
2023-05-12T10:56:23.624Z,101459.49
2023-05-12T10:59:09.174Z,101460.20
2023-05-12T11:01:37.993Z,101458.61
2023-05-12T11:04:23.976Z,101457.01
2023-05-12T11:07:02.970Z,101457.17
2023-05-12T11:09:34.813Z,101456.23
2023-05-12T11:12:04.470Z,101458.06
2023-05-12T11:14:33.072Z,101459.34
2023-05-12T11:17:01.359Z,101454.56
2023-05-12T11:19:29.989Z,101456.48
2023-05-12T11:21:58.910Z,101450.99
2023-05-12T11:24:32.373Z,101452.58
2023-05-12T11:27:02.090Z,101448.41
2023-05-12T11:29:32.047Z,101450.20
2023-05-12T11:32:00.497Z,101443.98
2023-05-12T11:34:28.656Z,101446.33
2023-05-12T11:36:57.262Z,101447.09
2023-05-12T11:39:26.844Z,101442.64
2023-05-12T11:42:11.661Z,101441.05
2023-05-12T11:44:47.661Z,101436.16
2023-05-12T11:47:19.109Z,101439.82
2023-05-12T11:49:48.935Z,101440.52
2023-05-12T11:52:17.902Z,101442.07
2023-05-12T11:54:49.594Z,101441.73
2023-05-12T11:57:27.618Z,101439.87
2023-05-12T11:59:58.003Z,101439.36
2023-05-12T12:02:26.993Z,101439.04
2023-05-12T12:04:55.319Z,101436.02
2023-05-12T12:07:30.912Z,101433.67
2023-05-12T12:10:00.516Z,101427.68
2023-05-12T12:12:28.637Z,101428.26
2023-05-12T12:14:59.724Z,101428.99
2023-05-12T12:17:30.335Z,101429.36
2023-05-12T12:19:59.515Z,101427.11
2023-05-12T12:22:27.481Z,101422.77
2023-05-12T12:24:55.996Z,101423.92
2023-05-12T12:27:24.379Z,101424.23
2023-05-12T12:29:52.748Z,101426.95
2023-05-12T12:32:20.930Z,101423.83
2023-05-12T12:34:49.629Z,101418.16
2023-05-12T12:37:18.568Z,101416.77
2023-05-12T12:39:48.215Z,101414.13
2023-05-12T12:42:16.543Z,101407.75
2023-05-12T12:44:48.398Z,101403.30
2023-05-12T12:47:17.067Z,101399.77
2023-05-12T12:49:46.086Z,101402.77
2023-05-12T12:52:14.252Z,101402.95
2023-05-12T12:54:43.026Z,101397.44
2023-05-12T12:57:11.265Z,101402.11
2023-05-12T12:59:39.739Z,101401.48
2023-05-12T13:02:08.688Z,101398.66
2023-05-12T13:04:36.757Z,101394.24
2023-05-12T13:07:05.409Z,101395.52
2023-05-12T13:09:35.500Z,101392.85
2023-05-12T13:12:03.996Z,101387.76
2023-05-12T13:14:32.669Z,101387.45
2023-05-12T13:17:01.542Z,101381.84
2023-05-12T13:19:31.512Z,101385.25
2023-05-12T13:21:59.804Z,101386.48
2023-05-12T13:24:30.227Z,101386.06
2023-05-12T13:26:58.487Z,101382.56
2023-05-12T13:29:26.688Z,101384.02
2023-05-12T13:31:55.168Z,101378.40
2023-05-12T13:34:23.179Z,101378.05
2023-05-12T13:36:53.601Z,101379.44
2023-05-12T13:39:22.625Z,101374.41
2023-05-12T13:41:51.683Z,101372.75
2023-05-12T13:44:19.765Z,101374.10
2023-05-12T13:46:49.131Z,101370.15
2023-05-12T13:49:19.284Z,101368.23
2023-05-12T13:51:47.134Z,101364.59
2023-05-12T13:54:15.488Z,101374.83
2023-05-12T13:56:43.385Z,101370.91
2023-05-12T13:59:11.278Z,101376.08
2023-05-12T14:01:39.529Z,101374.81
2023-05-12T14:04:07.852Z,101374.04
2023-05-12T14:06:36.199Z,101373.87
2023-05-12T14:09:05.683Z,101374.96
2023-05-12T14:11:33.895Z,101371.36
2023-05-12T14:14:03.007Z,101370.08
2023-05-12T14:16:31.147Z,101369.96
2023-05-12T14:18:59.977Z,101372.31
2023-05-12T14:21:28.094Z,101373.36
2023-05-12T14:23:56.296Z,101375.06
2023-05-12T14:26:25.645Z,101373.72
2023-05-12T14:28:55.198Z,101373.42
2023-05-12T14:31:24.220Z,101369.41
2023-05-12T14:33:53.876Z,101367.27
2023-05-12T14:36:22.456Z,101368.45
2023-05-12T14:38:51.944Z,101368.58
2023-05-12T14:41:21.779Z,101371.91
2023-05-12T14:43:50.098Z,101373.33
2023-05-12T14:46:18.219Z,101372.20
2023-05-12T14:48:46.985Z,101369.67
2023-05-12T14:51:15.024Z,101369.33
2023-05-12T14:53:42.962Z,101368.27
2023-05-12T14:56:11.023Z,101368.88
2023-05-12T14:58:39.352Z,101365.70
2023-05-12T15:01:09.465Z,101369.05
2023-05-12T15:03:38.112Z,101369.88
2023-05-12T15:06:08.078Z,101370.07
2023-05-12T15:08:36.844Z,101367.19
2023-05-12T15:11:04.923Z,101365.98
2023-05-12T15:13:32.945Z,101371.56
2023-05-12T15:16:02.419Z,101364.02
2023-05-12T15:18:30.445Z,101360.30
2023-05-12T15:20:58.792Z,101357.59
2023-05-12T15:23:27.758Z,101357.69
2023-05-12T15:25:55.901Z,101354.52
2023-05-12T15:28:25.134Z,101353.68
2023-05-12T15:30:58.299Z,101355.73
2023-05-12T15:33:27.318Z,101354.55
2023-05-12T15:35:55.376Z,101347.77
2023-05-12T15:38:23.163Z,101345.61
2023-05-12T15:40:51.665Z,101351.73
2023-05-12T15:43:19.837Z,101348.99
2023-05-12T15:45:48.210Z,101349.23
2023-05-12T15:48:16.543Z,101347.15
2023-05-12T15:50:44.633Z,101346.02
2023-05-12T15:53:13.021Z,101347.67
2023-05-12T15:55:42.917Z,101344.71
2023-05-12T16:02:52.486Z,101343.48
2023-05-12T16:05:23.882Z,101350.11
2023-05-12T16:07:54.193Z,101357.30
2023-05-12T16:10:22.726Z,101354.91
2023-05-12T16:12:51.018Z,101355.19
2023-05-12T16:15:19.904Z,101359.71
2023-05-12T16:17:48.774Z,101358.21
2023-05-12T16:20:16.969Z,101357.44
2023-05-12T16:22:45.402Z,101357.71
2023-05-12T16:25:13.889Z,101359.27
2023-05-12T16:27:44.390Z,101360.42
2023-05-12T16:30:13.618Z,101358.23
2023-05-12T16:32:42.117Z,101360.95
2023-05-12T16:35:10.802Z,101363.14
2023-05-12T16:37:39.302Z,101365.34
2023-05-12T16:40:09.568Z,101363.98
2023-05-12T16:42:37.687Z,101360.33
2023-05-12T16:45:07.132Z,101361.59
2023-05-12T16:47:35.392Z,101360.03
2023-05-12T16:50:07.798Z,101365.83
2023-05-12T16:52:42.068Z,101366.75
2023-05-12T16:55:23.010Z,101361.17
2023-05-12T16:57:59.923Z,101359.30
2023-05-12T17:00:38.584Z,101364.30
2023-05-12T17:03:08.404Z,101359.04
2023-05-12T17:05:37.980Z,101362.31
2023-05-12T17:08:07.365Z,101365.73
2023-05-12T17:10:35.938Z,101362.91
2023-05-12T17:13:06.262Z,101363.86
2023-05-12T17:15:36.731Z,101368.21
2023-05-12T17:18:05.401Z,101369.51
2023-05-12T17:20:33.470Z,101367.61
2023-05-12T17:23:02.059Z,101372.30
2023-05-12T17:25:30.854Z,101373.94
2023-05-12T17:27:59.448Z,101373.64
2023-05-12T17:30:28.736Z,101373.34
2023-05-12T17:32:58.200Z,101371.27
2023-05-12T17:35:26.708Z,101374.72
2023-05-12T17:38:01.488Z,101376.86
2023-05-12T17:40:30.895Z,101376.58
2023-05-12T17:43:00.509Z,101374.02
2023-05-12T17:45:29.804Z,101375.98
2023-05-12T17:47:59.785Z,101375.16
2023-05-12T17:50:29.694Z,101375.07
2023-05-12T17:53:02.708Z,101375.65
2023-05-12T17:55:32.701Z,101379.43
2023-05-12T17:58:03.162Z,101381.29
2023-05-12T18:00:33.027Z,101376.04
2023-05-12T18:03:03.870Z,101379.98
2023-05-12T18:05:36.709Z,101377.54
2023-05-12T18:08:06.522Z,101379.55
2023-05-12T18:10:36.517Z,101379.44
2023-05-12T18:13:08.497Z,101380.90
2023-05-12T18:15:44.229Z,101382.72
2023-05-12T18:18:14.302Z,101380.98
2023-05-12T18:20:43.039Z,101382.59
2023-05-12T18:23:14.533Z,101381.94
2023-05-12T18:25:47.165Z,101383.98
2023-05-12T18:28:17.806Z,101387.86
2023-05-12T18:30:50.423Z,101392.70
2023-05-12T18:33:26.252Z,101395.73
2023-05-12T18:40:29.593Z,101399.75
2023-05-12T18:43:03.994Z,101397.11
2023-05-12T18:45:52.431Z,101399.98
2023-05-12T18:48:23.322Z,101401.81
2023-05-12T18:51:14.888Z,101403.31
2023-05-12T18:54:02.110Z,101405.65
2023-05-12T18:56:34.780Z,101406.56
2023-05-12T18:59:26.797Z,101405.52
2023-05-12T19:01:57.100Z,101405.41
2023-05-12T19:04:26.626Z,101408.33
2023-05-12T19:06:54.603Z,101406.94
2023-05-12T19:09:35.576Z,101408.40
2023-05-12T19:12:19.376Z,101405.80
2023-05-12T19:14:47.977Z,101413.95
2023-05-12T19:17:17.265Z,101414.89
2023-05-12T19:19:46.569Z,101415.79
2023-05-12T19:22:33.453Z,101416.14
2023-05-12T19:25:03.832Z,101413.85
2023-05-12T19:27:38.749Z,101416.16
2023-05-12T19:30:40.336Z,101414.06
2023-05-12T19:33:35.462Z,101409.90
2023-05-12T19:36:15.284Z,101410.28
2023-05-12T19:39:55.997Z,101408.35
2023-05-12T19:43:10.988Z,101410.64
2023-05-12T19:45:59.996Z,101410.31
2023-05-12T19:48:45.162Z,101412.62
2023-05-12T19:51:26.256Z,101413.33
2023-05-12T19:54:16.104Z,101413.17
2023-05-12T19:57:05.475Z,101412.66
2023-05-12T20:03:05.380Z,101410.06
2023-05-12T20:05:48.411Z,101412.77
2023-05-12T20:08:19.661Z,101414.37
2023-05-12T20:10:50.916Z,101413.15
2023-05-12T20:13:24.010Z,101408.21
2023-05-12T20:16:07.273Z,101407.86
2023-05-12T20:18:42.195Z,101402.58
2023-05-12T20:21:16.901Z,101402.08
2023-05-12T20:23:47.962Z,101402.80
2023-05-12T20:26:20.437Z,101403.40
2023-05-12T20:28:50.827Z,101408.70
2023-05-12T20:31:23.856Z,101411.14
2023-05-12T20:33:56.398Z,101414.48
2023-05-12T20:36:24.462Z,101416.55
2023-05-12T20:41:48.334Z,101408.30
2023-05-12T20:47:13.819Z,101402.09
2023-05-12T20:49:42.282Z,101395.70
2023-05-12T20:52:21.368Z,101398.11
2023-05-12T20:54:58.304Z,101401.77
2023-05-12T20:57:29.595Z,101402.23
2023-05-12T21:00:01.493Z,101402.16
2023-05-12T21:02:36.348Z,101411.08
2023-05-12T21:05:07.781Z,101410.80
2023-05-12T21:07:39.095Z,101411.09
2023-05-12T21:10:14.031Z,101410.48
2023-05-12T21:12:55.059Z,101406.34
2023-05-12T21:15:26.857Z,101400.58
2023-05-12T21:17:59.136Z,101404.33
2023-05-12T21:20:50.601Z,101402.30
2023-05-12T21:23:20.419Z,101405.48
2023-05-12T21:25:49.027Z,101401.11
2023-05-12T21:28:21.337Z,101396.57
2023-05-12T21:30:49.942Z,101395.02
2023-05-12T21:33:18.388Z,101393.29
2023-05-12T21:35:51.189Z,101394.03
2023-05-12T21:38:23.456Z,101395.33
2023-05-12T21:40:54.522Z,101398.89
2023-05-12T21:43:24.206Z,101400.70
2023-05-12T22:24:25.508Z,101398.92
2023-05-12T22:26:55.325Z,101395.90
2023-05-12T22:29:23.694Z,101396.31
2023-05-12T22:31:53.588Z,101392.82
2023-05-12T22:34:23.391Z,101393.73
2023-05-12T22:36:51.733Z,101392.90
2023-05-12T22:39:21.378Z,101391.34
2023-05-12T22:41:50.947Z,101391.91
2023-05-12T22:44:20.695Z,101389.48
2023-05-12T22:46:50.807Z,101389.01
2023-05-12T22:49:20.126Z,101394.05
2023-05-12T22:51:48.992Z,101394.81
2023-05-12T22:54:18.934Z,101400.14
2023-05-12T22:56:48.138Z,101401.06
2023-05-12T22:59:17.868Z,101404.79
2023-05-12T23:01:54.711Z,101399.02
2023-05-12T23:04:23.764Z,101398.83
2023-05-12T23:07:00.797Z,101396.38
2023-05-12T23:09:33.880Z,101391.85
2023-05-12T23:12:02.870Z,101392.56
2023-05-12T23:14:32.963Z,101391.00
2023-05-12T23:17:01.646Z,101384.84
2023-05-12T23:19:33.068Z,101381.14
2023-05-12T23:22:28.427Z,101381.32
2023-05-12T23:24:58.498Z,101374.30
2023-05-12T23:27:32.432Z,101370.98
2023-05-12T23:30:04.505Z,101369.61
2023-05-12T23:32:36.126Z,101366.45
2023-05-12T23:35:07.096Z,101361.77
2023-05-12T23:37:39.583Z,101365.70
2023-05-12T23:40:14.601Z,101362.95
2023-05-12T23:42:44.006Z,101364.73
2023-05-12T23:45:12.588Z,101363.89
2023-05-12T23:47:42.004Z,101361.63
2023-05-12T23:50:11.401Z,101359.52
2023-05-12T23:52:42.497Z,101356.54
2023-05-12T23:55:12.225Z,101357.42
2023-05-12T23:57:43.988Z,101363.21
